createdAt,value
2019-01-10T00:00:20.426Z,88.10
2019-01-10T00:02:48.943Z,88.80
2019-01-10T00:05:17.308Z,88.50
2019-01-10T00:07:45.675Z,88.60
2019-01-10T00:10:15.811Z,89.00
2019-01-10T00:12:44.179Z,88.10
2019-01-10T00:15:17.434Z,87.60
2019-01-10T00:17:47.000Z,87.60
2019-01-10T00:20:16.696Z,88.10
2019-01-10T00:22:45.059Z,89.00
2019-01-10T00:25:15.091Z,88.30
2019-01-10T00:27:43.460Z,88.50
2019-01-10T00:30:17.730Z,88.60
2019-01-10T00:32:46.139Z,88.50
2019-01-10T00:35:14.502Z,89.20
2019-01-10T00:37:42.867Z,88.60
2019-01-10T00:40:14.394Z,88.30
2019-01-10T00:42:49.026Z,89.00
2019-01-10T00:45:18.646Z,88.20
2019-01-10T00:47:47.087Z,88.50
2019-01-10T00:50:17.792Z,89.00
2019-01-10T00:52:46.200Z,88.50
2019-01-10T00:55:14.568Z,89.40
2019-01-10T00:57:42.935Z,88.30
2019-01-10T01:00:18.071Z,88.60
2019-01-10T01:02:46.440Z,88.30
2019-01-10T01:05:15.175Z,88.30
2019-01-10T01:07:43.752Z,88.50
2019-01-10T01:10:20.783Z,88.30
2019-01-10T01:12:58.020Z,88.50
2019-01-10T01:15:19.208Z,89.30
2019-01-10T01:17:48.623Z,89.70
2019-01-10T01:20:18.767Z,88.80
2019-01-10T01:22:47.143Z,89.00
2019-01-10T01:25:15.507Z,89.00
2019-01-10T01:27:43.920Z,88.60
2019-01-10T01:30:14.724Z,89.00
2019-01-10T01:32:43.432Z,88.60
2019-01-10T01:35:12.902Z,88.60
2019-01-10T01:37:41.261Z,89.00
2019-01-10T01:40:15.263Z,89.00
2019-01-10T01:42:43.664Z,89.00
2019-01-10T01:45:12.965Z,89.50
2019-01-10T01:47:41.330Z,88.80
2019-01-10T01:50:12.933Z,88.60
2019-01-10T01:52:41.292Z,88.70
2019-01-10T01:55:09.665Z,89.50
2019-01-10T01:57:39.503Z,89.20
2019-01-10T02:00:13.771Z,89.00
2019-01-10T02:02:42.132Z,89.10
2019-01-10T02:05:10.832Z,88.80
2019-01-10T02:07:39.201Z,89.50
2019-01-10T02:10:16.169Z,89.30
2019-01-10T02:12:44.535Z,89.20
2019-01-10T02:15:14.290Z,89.70
2019-01-10T02:17:48.910Z,89.80
2019-01-10T02:20:14.113Z,90.00
2019-01-10T02:22:42.475Z,90.10
2019-01-10T02:25:12.741Z,90.00
2019-01-10T02:27:41.415Z,89.90
2019-01-10T02:30:18.217Z,89.60
2019-01-10T02:32:46.566Z,89.60
2019-01-10T02:35:15.098Z,89.00
2019-01-10T02:37:43.949Z,89.90
2019-01-10T02:40:12.351Z,88.80
2019-01-10T02:42:40.715Z,89.30
2019-01-10T02:45:11.954Z,89.70
2019-01-10T02:47:40.314Z,89.60
2019-01-10T02:50:12.106Z,89.20
2019-01-10T02:52:40.524Z,89.20
2019-01-10T02:55:09.628Z,88.40
2019-01-10T02:57:37.989Z,88.30
2019-01-10T03:00:13.379Z,88.30
2019-01-10T03:02:41.742Z,88.60
2019-01-10T03:05:10.111Z,88.50
2019-01-10T03:07:38.524Z,88.70
2019-01-10T03:10:10.319Z,88.30
2019-01-10T03:12:38.678Z,88.10
2019-01-10T03:15:08.023Z,88.60
2019-01-10T03:17:36.382Z,88.30
2019-01-10T03:20:08.094Z,88.30
2019-01-10T03:22:36.983Z,88.10
2019-01-10T03:25:06.983Z,88.30
2019-01-10T03:27:35.342Z,88.50
2019-01-10T03:30:05.951Z,88.80
2019-01-10T03:32:34.423Z,88.50
2019-01-10T03:35:02.839Z,88.00
2019-01-10T03:37:31.335Z,88.30
2019-01-10T03:39:59.699Z,88.10
2019-01-10T03:42:28.064Z,88.30
2019-01-10T03:44:56.474Z,88.00
2019-01-10T03:47:24.818Z,88.50
2019-01-10T03:49:53.194Z,88.60
2019-01-10T03:52:21.671Z,88.80
2019-01-10T03:54:49.969Z,88.20
2019-01-10T03:57:18.322Z,87.80
2019-01-10T03:59:48.191Z,87.30
2019-01-10T04:02:16.547Z,87.40
2019-01-10T04:04:44.907Z,87.90
2019-01-10T04:07:13.316Z,88.50
2019-01-10T04:09:41.680Z,88.40
2019-01-10T04:12:10.046Z,88.20
2019-01-10T04:14:38.442Z,87.90
2019-01-10T04:17:06.847Z,88.00
2019-01-10T04:19:35.203Z,87.80
2019-01-10T04:22:04.527Z,88.10
2019-01-10T04:24:33.377Z,89.00
2019-01-10T04:27:01.738Z,88.80
2019-01-10T04:29:30.143Z,87.70
2019-01-10T04:31:58.504Z,86.50
2019-01-10T04:34:26.856Z,86.40
2019-01-10T04:36:55.246Z,86.80
2019-01-10T04:39:23.598Z,86.70
2019-01-10T04:41:51.964Z,86.00
2019-01-10T04:44:21.439Z,86.30
2019-01-10T04:46:49.801Z,86.00
2019-01-10T04:49:18.155Z,85.80
2019-01-10T04:51:46.554Z,85.80
2019-01-10T04:54:14.917Z,86.30
2019-01-10T04:56:43.280Z,85.80
2019-01-10T04:59:12.190Z,85.40
2019-01-10T05:01:40.734Z,86.20
2019-01-10T05:04:09.091Z,86.10
2019-01-10T05:06:38.318Z,86.00
2019-01-10T05:09:07.047Z,86.40
2019-01-10T05:11:35.529Z,86.40
2019-01-10T05:14:03.999Z,86.20
2019-01-10T05:16:32.363Z,87.40
2019-01-10T05:19:00.729Z,86.70
2019-01-10T05:21:29.127Z,86.70
2019-01-10T05:23:57.879Z,86.10
2019-01-10T05:26:27.471Z,86.20
2019-01-10T05:28:56.938Z,86.70
2019-01-10T05:31:25.297Z,87.30
2019-01-10T05:33:53.667Z,87.10
2019-01-10T05:36:22.068Z,86.40
2019-01-10T05:38:50.435Z,86.90
2019-01-10T05:41:18.794Z,87.40
2019-01-10T05:43:47.207Z,88.10
2019-01-10T05:46:15.563Z,88.60
2019-01-10T05:48:47.097Z,87.90
2019-01-10T05:51:14.225Z,88.00
2019-01-10T05:53:42.584Z,87.90
2019-01-10T05:56:15.629Z,87.90
2019-01-10T05:58:40.990Z,87.40
2019-01-10T06:01:09.352Z,88.00
2019-01-10T06:03:37.722Z,87.80
2019-01-10T06:06:06.107Z,87.20
2019-01-10T06:08:34.479Z,87.10
2019-01-10T06:11:02.835Z,87.80
2019-01-10T06:13:32.134Z,88.10
2019-01-10T06:16:00.486Z,88.10
2019-01-10T06:18:28.847Z,88.10
2019-01-10T06:20:57.247Z,87.90
2019-01-10T06:23:25.619Z,87.50
2019-01-10T06:25:53.976Z,88.10
2019-01-10T06:28:23.318Z,88.50
2019-01-10T06:30:51.680Z,88.60
2019-01-10T06:33:20.063Z,88.40
2019-01-10T06:35:49.451Z,87.60
2019-01-10T06:38:17.811Z,88.60
2019-01-10T06:40:46.170Z,88.60
2019-01-10T06:43:14.499Z,88.70
2019-01-10T06:45:42.858Z,88.40
2019-01-10T06:48:11.222Z,88.10
2019-01-10T06:50:39.618Z,87.20
2019-01-10T06:53:08.067Z,87.50
2019-01-10T06:55:36.440Z,87.70
2019-01-10T06:58:05.067Z,87.60
2019-01-10T07:00:33.427Z,87.30
2019-01-10T07:03:01.789Z,87.40
2019-01-10T07:05:30.223Z,87.60
2019-01-10T07:07:58.580Z,87.20
2019-01-10T07:10:29.052Z,87.20
2019-01-10T07:12:57.698Z,87.60
2019-01-10T07:15:26.051Z,88.00
2019-01-10T07:17:54.423Z,86.40
2019-01-10T07:20:24.326Z,86.90
2019-01-10T07:22:53.127Z,86.90
2019-01-10T07:25:21.501Z,87.10
2019-01-10T07:27:49.919Z,87.30
2019-01-10T07:30:24.423Z,87.70
2019-01-10T07:32:52.779Z,87.70
2019-01-10T07:35:21.182Z,87.60
2019-01-10T07:37:51.306Z,87.40
2019-01-10T07:40:19.667Z,87.70
2019-01-10T07:42:48.962Z,88.30
2019-01-10T07:45:19.534Z,87.80
2019-01-10T07:47:48.358Z,87.80
2019-01-10T07:50:23.632Z,87.50
2019-01-10T07:52:51.999Z,87.80
2019-01-10T07:55:20.362Z,87.50
2019-01-10T07:57:48.791Z,87.80
2019-01-10T08:00:19.903Z,87.80
2019-01-10T08:02:48.259Z,87.80
2019-01-10T08:05:16.758Z,88.10
2019-01-10T08:07:45.118Z,87.80
2019-01-10T08:10:16.387Z,87.40
2019-01-10T08:12:44.794Z,87.90
2019-01-10T08:15:16.007Z,88.20
2019-01-10T08:17:44.366Z,88.10
2019-01-10T08:20:13.072Z,88.30
2019-01-10T08:22:41.522Z,87.80
2019-01-10T08:25:10.795Z,87.90
2019-01-10T08:27:39.734Z,88.40
2019-01-10T08:30:16.754Z,87.60
2019-01-10T08:32:45.552Z,87.80
2019-01-10T08:35:15.458Z,87.60
2019-01-10T08:37:43.830Z,87.40
2019-01-10T08:40:12.299Z,87.20
2019-01-10T08:42:40.663Z,87.40
2019-01-10T08:45:10.487Z,87.30
2019-01-10T08:47:39.566Z,86.90
2019-01-10T08:50:11.203Z,87.00
2019-01-10T08:52:39.559Z,87.90
2019-01-10T08:55:07.969Z,87.70
2019-01-10T08:57:36.338Z,86.80
2019-01-10T09:00:10.800Z,87.40
2019-01-10T09:02:39.191Z,87.60
2019-01-10T09:05:07.722Z,87.30
2019-01-10T09:07:36.091Z,87.60
2019-01-10T09:10:07.587Z,86.90
2019-01-10T09:12:35.947Z,87.10
2019-01-10T09:15:06.346Z,87.60
2019-01-10T09:17:34.662Z,87.20
2019-01-10T09:20:04.566Z,86.90
2019-01-10T09:22:32.939Z,87.20
2019-01-10T09:25:02.711Z,87.10
2019-01-10T09:27:31.074Z,86.90
2019-01-10T09:29:59.435Z,86.50
2019-01-10T09:32:27.843Z,86.20
2019-01-10T09:34:58.354Z,86.30
2019-01-10T09:37:26.715Z,85.80
2019-01-10T09:39:55.117Z,86.40
2019-01-10T09:42:23.476Z,85.80
2019-01-10T09:44:51.891Z,86.00
2019-01-10T09:47:21.426Z,86.20
2019-01-10T09:49:49.803Z,85.00
2019-01-10T09:52:18.164Z,85.50
2019-01-10T09:54:46.564Z,85.10
2019-01-10T09:57:14.919Z,85.30
2019-01-10T09:59:43.283Z,84.70
2019-01-10T10:02:11.690Z,84.20
2019-01-10T10:04:40.051Z,83.90
2019-01-10T10:07:08.425Z,83.70
2019-01-10T10:09:37.804Z,84.10
2019-01-10T10:12:06.171Z,83.60
2019-01-10T10:14:34.558Z,82.50
2019-01-10T10:17:02.919Z,82.50
2019-01-10T10:19:31.278Z,82.90
2019-01-10T10:21:59.643Z,82.50
2019-01-10T10:24:28.038Z,82.10
2019-01-10T10:26:56.399Z,82.10
2019-01-10T10:29:24.764Z,80.90
2019-01-10T10:31:54.169Z,81.80
2019-01-10T10:34:22.527Z,80.80
2019-01-10T10:36:52.927Z,80.40
2019-01-10T10:39:21.331Z,80.00
2019-01-10T10:41:49.694Z,80.90
2019-01-10T10:44:18.135Z,81.90
2019-01-10T10:46:46.630Z,80.90
2019-01-10T10:49:14.994Z,81.30
2019-01-10T10:51:43.359Z,80.40
2019-01-10T10:54:11.971Z,79.90
2019-01-10T10:56:40.395Z,80.20
2019-01-10T10:59:08.763Z,81.20
2019-01-10T11:01:37.183Z,81.40
2019-01-10T11:04:08.463Z,81.10
2019-01-10T11:06:36.823Z,80.70
2019-01-10T11:09:09.284Z,79.20
2019-01-10T11:11:37.275Z,79.30
2019-01-10T11:14:05.632Z,81.40
2019-01-10T11:16:34.887Z,79.90
2019-01-10T11:19:03.248Z,79.30
2019-01-10T11:21:31.598Z,79.10
2019-01-10T11:24:00.003Z,79.90
2019-01-10T11:26:28.363Z,79.60
2019-01-10T11:28:56.719Z,80.80
2019-01-10T11:31:25.110Z,79.90
2019-01-10T11:33:53.545Z,80.60
2019-01-10T11:36:21.903Z,79.30
2019-01-10T11:38:52.784Z,79.90
2019-01-10T11:41:21.152Z,80.80
2019-01-10T11:43:49.512Z,80.80
2019-01-10T11:46:19.699Z,81.50
2019-01-10T11:48:47.915Z,80.10
2019-01-10T11:51:16.278Z,77.90
2019-01-10T11:53:44.683Z,78.50
2019-01-10T11:56:13.053Z,79.20
2019-01-10T11:58:41.407Z,80.00
2019-01-10T12:01:10.495Z,79.90
2019-01-10T12:03:38.858Z,79.30
2019-01-10T12:06:07.213Z,78.30
2019-01-10T12:08:35.626Z,79.10
2019-01-10T12:11:03.986Z,79.90
2019-01-10T12:13:32.352Z,79.70
2019-01-10T12:16:00.755Z,79.90
2019-01-10T12:18:29.113Z,80.00
2019-01-10T12:20:57.474Z,80.90
2019-01-10T12:23:26.360Z,80.60
2019-01-10T12:25:54.802Z,81.80
2019-01-10T12:28:23.170Z,81.10
2019-01-10T12:30:51.585Z,80.40
2019-01-10T12:33:19.952Z,80.90
2019-01-10T12:35:48.310Z,78.80
2019-01-10T12:38:16.710Z,78.30
2019-01-10T12:40:46.195Z,78.70
2019-01-10T12:43:14.568Z,78.70
2019-01-10T12:45:43.540Z,78.00
2019-01-10T12:48:11.900Z,78.50
2019-01-10T12:50:40.267Z,77.70
2019-01-10T12:53:08.668Z,78.50
2019-01-10T12:55:37.039Z,77.40
2019-01-10T12:58:05.401Z,77.40
2019-01-10T13:00:33.807Z,78.20
2019-01-10T13:03:02.179Z,77.60
2019-01-10T13:05:30.542Z,77.80
2019-01-10T13:08:03.813Z,77.90
2019-01-10T13:10:30.143Z,77.70
2019-01-10T13:12:58.599Z,77.40
2019-01-10T13:15:27.014Z,77.40
2019-01-10T13:17:55.376Z,77.70
2019-01-10T13:20:23.822Z,77.90
2019-01-10T13:22:52.246Z,77.30
2019-01-10T13:25:21.250Z,77.80
2019-01-10T13:27:50.148Z,77.00
2019-01-10T13:30:25.691Z,76.70
2019-01-10T13:32:54.131Z,76.90
2019-01-10T13:35:22.531Z,77.70
2019-01-10T13:37:50.946Z,76.50
2019-01-10T13:40:19.312Z,76.40
2019-01-10T13:42:49.520Z,76.50
2019-01-10T13:45:18.622Z,76.50
2019-01-10T13:47:50.286Z,77.10
2019-01-10T13:50:24.958Z,77.90
2019-01-10T13:52:53.319Z,76.20
2019-01-10T13:55:21.685Z,76.80
2019-01-10T13:57:50.144Z,76.90
2019-01-10T14:00:20.882Z,77.60
2019-01-10T14:02:49.239Z,76.70
2019-01-10T14:05:17.635Z,77.10
2019-01-10T14:07:46.037Z,77.30
2019-01-10T14:10:16.367Z,77.60
2019-01-10T14:12:45.751Z,77.30
2019-01-10T14:15:17.219Z,77.80
2019-01-10T14:17:45.587Z,79.20
2019-01-10T14:20:14.363Z,79.30
2019-01-10T14:22:42.723Z,78.70
2019-01-10T14:25:11.228Z,78.30
2019-01-10T14:27:39.622Z,79.20
2019-01-10T14:30:17.606Z,79.00
2019-01-10T14:32:46.683Z,77.40
2019-01-10T14:35:15.045Z,78.60
2019-01-10T14:37:43.401Z,77.90
2019-01-10T14:40:12.438Z,77.10
2019-01-10T14:42:40.801Z,77.80
2019-01-10T14:45:12.695Z,78.10
2019-01-10T14:47:41.094Z,76.70
2019-01-10T14:50:10.602Z,78.00
2019-01-10T14:52:38.967Z,78.60
2019-01-10T14:55:10.728Z,79.90
2019-01-10T14:57:39.090Z,80.20
2019-01-10T15:00:13.403Z,79.30
2019-01-10T15:02:41.802Z,79.40
2019-01-10T15:05:10.175Z,79.50
2019-01-10T15:07:38.544Z,80.40
2019-01-10T15:10:08.579Z,79.80
2019-01-10T15:12:36.947Z,80.40
2019-01-10T15:15:08.818Z,79.80
2019-01-10T15:17:37.682Z,81.00
2019-01-10T15:20:09.446Z,82.30
2019-01-10T15:22:37.810Z,80.90
2019-01-10T15:25:06.279Z,80.50
2019-01-10T15:27:34.655Z,81.20
2019-01-10T15:32:31.535Z,81.30
2019-01-10T15:34:59.899Z,82.30
2019-01-10T15:37:28.263Z,82.70
2019-01-10T15:39:57.278Z,82.50
2019-01-10T15:42:25.649Z,82.00
2019-01-10T15:44:54.011Z,83.20
2019-01-10T15:47:23.451Z,82.20
2019-01-10T15:49:51.815Z,83.00
2019-01-10T15:52:20.193Z,84.40
2019-01-10T15:54:48.590Z,84.80
2019-01-10T15:57:16.959Z,83.70
2019-01-10T15:59:45.327Z,83.10
2019-01-10T16:02:14.870Z,85.20
2019-01-10T16:04:43.228Z,86.00
2019-01-10T16:07:11.606Z,86.10
2019-01-10T16:09:39.935Z,87.20
2019-01-10T16:12:08.301Z,86.90
2019-01-10T16:14:36.659Z,87.40
2019-01-10T16:17:05.055Z,85.30
2019-01-10T16:19:33.690Z,84.10
2019-01-10T16:22:02.050Z,84.00
2019-01-10T16:24:31.649Z,83.90
2019-01-10T16:27:00.011Z,83.50
2019-01-10T16:29:28.379Z,83.20
2019-01-10T16:31:56.855Z,82.90
2019-01-10T16:34:25.222Z,82.90
2019-01-10T16:36:53.510Z,83.30
2019-01-10T16:39:21.907Z,85.30
2019-01-10T16:41:50.273Z,85.60
2019-01-10T16:44:18.628Z,86.10
2019-01-10T16:46:47.637Z,86.00
2019-01-10T16:49:16.538Z,85.10
2019-01-10T16:51:44.902Z,84.60
2019-01-10T16:54:13.570Z,83.70
2019-01-10T16:56:41.939Z,84.50
2019-01-10T16:59:10.308Z,85.80
2019-01-10T17:01:38.698Z,85.70
2019-01-10T17:04:07.059Z,85.80
2019-01-10T17:06:35.432Z,86.50
2019-01-10T17:09:06.802Z,86.50
2019-01-10T17:11:35.165Z,86.90
2019-01-10T17:14:03.524Z,88.40
2019-01-10T17:16:31.943Z,87.90
2019-01-10T17:19:00.307Z,87.20
2019-01-10T17:21:28.666Z,86.40
2019-01-10T17:23:57.071Z,86.50
2019-01-10T17:26:25.435Z,86.80
2019-01-10T17:28:53.805Z,87.70
2019-01-10T17:31:24.352Z,87.80
2019-01-10T17:33:52.794Z,88.80
2019-01-10T17:36:21.155Z,88.60
2019-01-10T17:38:49.554Z,87.90
2019-01-10T17:41:17.925Z,87.80
2019-01-10T17:43:46.295Z,87.10
2019-01-10T17:46:14.699Z,87.20
2019-01-10T17:48:43.087Z,87.40
2019-01-10T17:51:12.571Z,88.60
2019-01-10T17:53:41.834Z,89.40
2019-01-10T17:56:10.207Z,90.10
2019-01-10T17:58:38.577Z,90.50
2019-01-10T18:01:09.061Z,90.90
2019-01-10T18:03:40.332Z,90.70
2019-01-10T18:06:07.371Z,91.00
2019-01-10T18:08:35.770Z,91.00
2019-01-10T18:11:04.139Z,90.20
2019-01-10T18:13:32.507Z,90.10
2019-01-10T18:16:01.478Z,90.40
2019-01-10T18:18:29.839Z,90.80
2019-01-10T18:20:58.227Z,90.30
2019-01-10T18:23:26.625Z,90.10
2019-01-10T18:25:56.093Z,89.80
2019-01-10T18:28:24.968Z,89.80
2019-01-10T18:30:53.374Z,90.00
2019-01-10T18:33:21.747Z,90.00
2019-01-10T18:35:50.119Z,90.00
2019-01-10T18:38:19.994Z,90.20
2019-01-10T18:40:48.290Z,90.30
2019-01-10T18:43:17.026Z,90.70
2019-01-10T18:45:45.809Z,90.50
2019-01-10T18:48:14.165Z,90.60
2019-01-10T18:50:42.528Z,90.60
2019-01-10T18:53:12.107Z,90.40
2019-01-10T18:55:40.479Z,90.60
2019-01-10T18:58:08.838Z,90.40
2019-01-10T19:00:37.811Z,91.20
2019-01-10T19:03:06.527Z,90.90
2019-01-10T19:05:34.899Z,91.20
2019-01-10T19:08:04.546Z,90.80
2019-01-10T19:10:33.074Z,90.70
2019-01-10T19:13:01.494Z,90.50
2019-01-10T19:15:29.848Z,90.70
2019-01-10T19:18:03.290Z,90.40
2019-01-10T19:20:28.233Z,90.00
2019-01-10T19:22:57.870Z,90.20
2019-01-10T19:25:26.235Z,90.20
2019-01-10T19:27:54.601Z,90.10
2019-01-10T19:30:25.699Z,90.40
2019-01-10T19:32:54.142Z,90.40
2019-01-10T19:35:22.478Z,90.60
2019-01-10T19:37:50.884Z,90.50
2019-01-10T19:40:21.087Z,90.40
2019-01-10T19:42:49.464Z,90.10
2019-01-10T19:45:20.457Z,90.20
2019-01-10T19:47:48.888Z,90.10
2019-01-10T19:50:22.099Z,90.00
2019-01-10T19:52:50.511Z,90.40
2019-01-10T19:55:20.998Z,90.30
2019-01-10T19:57:49.369Z,90.30
2019-01-10T20:00:26.610Z,90.40
2019-01-10T20:02:55.343Z,90.50
2019-01-10T20:05:23.719Z,90.40
2019-01-10T20:07:52.132Z,90.30
2019-01-10T20:10:20.526Z,90.30
2019-01-10T20:12:49.663Z,90.30
2019-01-10T20:15:18.066Z,90.20
2019-01-10T20:17:46.438Z,90.10
2019-01-10T20:20:25.095Z,90.10
2019-01-10T20:22:53.634Z,90.00
2019-01-10T20:25:21.996Z,90.10
2019-01-10T20:27:50.407Z,90.00
2019-01-10T20:30:19.047Z,89.30
2019-01-10T20:32:47.407Z,90.00
2019-01-10T20:35:16.075Z,89.50
2019-01-10T20:37:44.511Z,89.90
2019-01-10T20:40:15.315Z,90.10
2019-01-10T20:42:45.194Z,89.90
2019-01-10T20:45:13.558Z,90.20
2019-01-10T20:47:42.302Z,90.50
2019-01-10T20:50:13.964Z,90.30
2019-01-10T20:52:42.327Z,90.10
2019-01-10T20:55:12.730Z,89.80
2019-01-10T20:57:42.123Z,90.00
2019-01-10T21:00:13.987Z,90.20
2019-01-10T21:02:42.355Z,90.10
2019-01-10T21:05:11.395Z,90.10
2019-01-10T21:07:39.759Z,90.00
2019-01-10T21:10:11.321Z,90.10
2019-01-10T21:12:39.889Z,90.20
2019-01-10T21:15:11.647Z,90.20
2019-01-10T21:17:40.019Z,90.40
2019-01-10T21:20:09.954Z,90.50
2019-01-10T21:22:38.318Z,90.20
2019-01-10T21:25:08.718Z,90.40
2019-01-10T21:27:37.483Z,90.70
2019-01-10T21:30:09.216Z,90.50
2019-01-10T21:32:40.852Z,90.70
2019-01-10T21:35:08.273Z,91.00
2019-01-10T21:37:36.630Z,90.80
2019-01-10T21:40:10.772Z,91.00
2019-01-10T21:42:40.263Z,91.00
2019-01-10T21:45:11.527Z,91.10
2019-01-10T21:47:39.899Z,91.20
2019-01-10T21:50:11.405Z,91.30
2019-01-10T21:52:39.779Z,91.40
2019-01-10T21:55:10.283Z,91.40
2019-01-10T21:57:38.641Z,91.40
2019-01-10T22:00:13.467Z,91.60
2019-01-10T22:02:42.470Z,91.60
2019-01-10T22:05:10.835Z,91.80
2019-01-10T22:07:39.206Z,91.80
2019-01-10T22:10:10.415Z,91.90
2019-01-10T22:12:38.854Z,92.00
2019-01-10T22:15:10.141Z,91.90
2019-01-10T22:17:38.874Z,92.00
2019-01-10T22:20:16.122Z,92.20
2019-01-10T22:22:45.196Z,92.20
2019-01-10T22:25:13.565Z,91.90
2019-01-10T22:27:41.924Z,92.30
2019-01-10T22:30:13.589Z,92.20
2019-01-10T22:32:41.961Z,92.20
2019-01-10T22:35:13.067Z,92.10
2019-01-10T22:37:41.478Z,92.30
2019-01-10T22:40:12.954Z,92.30
2019-01-10T22:42:41.428Z,92.10
2019-01-10T22:45:11.456Z,92.00
2019-01-10T22:47:39.823Z,92.10
2019-01-10T22:50:11.110Z,91.60
2019-01-10T22:52:39.519Z,92.10
2019-01-10T22:55:10.021Z,92.00
2019-01-10T22:57:38.314Z,92.30
2019-01-10T23:00:31.347Z,92.50
2019-01-10T23:03:08.123Z,92.20
2019-01-10T23:05:44.043Z,92.30
2019-01-10T23:08:12.411Z,92.00
2019-01-10T23:10:40.770Z,92.20
2019-01-10T23:13:09.172Z,92.20
2019-01-10T23:15:37.534Z,92.50
2019-01-10T23:18:06.455Z,92.50
2019-01-10T23:20:35.818Z,92.60
2019-01-10T23:23:07.043Z,92.70
2019-01-10T23:25:35.407Z,92.30
2019-01-10T23:28:04.183Z,92.30
2019-01-10T23:30:47.123Z,92.20
2019-01-10T23:33:15.658Z,92.80
2019-01-10T23:35:44.022Z,92.50
2019-01-10T23:38:12.391Z,92.40
2019-01-10T23:40:41.783Z,92.20
2019-01-10T23:43:10.148Z,92.30
2019-01-10T23:45:38.519Z,92.40
2019-01-10T23:48:06.911Z,92.40
2019-01-10T23:50:35.278Z,92.30
2019-01-10T23:53:03.643Z,92.30
2019-01-10T23:55:32.071Z,92.50
2019-01-10T23:58:00.435Z,92.70
